createdAt,value
2022-11-03T00:01:49.134Z,98838.09
2022-11-03T00:04:18.764Z,98830.28
2022-11-03T00:06:47.984Z,98831.84
2022-11-03T00:09:16.544Z,98827.47
2022-11-03T00:11:45.004Z,98829.34
2022-11-03T00:14:12.140Z,98822.34
2022-11-03T00:16:39.486Z,98827.59
2022-11-03T00:19:07.363Z,98830.41
2022-11-03T00:21:33.816Z,98826.84
2022-11-03T00:24:02.591Z,98828.66
2022-11-03T00:26:31.844Z,98823.53
2022-11-03T00:29:00.944Z,98820.41
2022-11-03T00:31:32.395Z,98819.59
2022-11-03T00:34:00.088Z,98829.31
2022-11-03T00:36:31.986Z,98820.03
2022-11-03T00:38:58.778Z,98817.34
2022-11-03T00:41:26.459Z,98817.28
2022-11-03T00:43:53.545Z,98805.03
2022-11-03T00:46:21.882Z,98811.38
2022-11-03T00:48:49.166Z,98804.84
2022-11-03T00:51:19.656Z,98800.44
2022-11-03T00:53:57.051Z,98804.16
2022-11-03T00:56:32.855Z,98807.38
2022-11-03T00:59:00.912Z,98804.69
2022-11-03T01:01:42.183Z,98804.44
2022-11-03T01:04:30.206Z,98799.69
2022-11-03T01:06:59.100Z,98794.16
2022-11-03T01:09:36.534Z,98789.31
2022-11-03T01:12:12.350Z,98789.72
2022-11-03T01:14:48.905Z,98779.44
2022-11-03T01:17:18.505Z,98778.91
2022-11-03T01:19:45.653Z,98773.75
2022-11-03T01:22:12.842Z,98773.78
2022-11-03T01:24:41.539Z,98776.75
2022-11-03T01:27:10.255Z,98777.81
2022-11-03T01:29:36.768Z,98769.09
2022-11-03T01:32:03.377Z,98762.69
2022-11-03T01:34:30.135Z,98762.41
2022-11-03T01:36:56.650Z,98758.03
2022-11-03T01:39:23.170Z,98756.25
2022-11-03T01:41:51.393Z,98756.53
2022-11-03T01:44:17.824Z,98759.44
2022-11-03T01:46:55.995Z,98748.06
2022-11-03T01:49:42.108Z,98747.94
2022-11-03T01:52:11.296Z,98751.75
2022-11-03T01:54:39.231Z,98740.09
2022-11-03T01:57:12.868Z,98737.47
2022-11-03T01:59:41.023Z,98731.59
2022-11-03T02:02:08.180Z,98725.97
2022-11-03T02:04:35.599Z,98724.41
2022-11-03T02:07:12.027Z,98723.38
2022-11-03T02:09:38.757Z,98723.88
2022-11-03T02:12:07.588Z,98721.19
2022-11-03T02:14:48.653Z,98715.03
2022-11-03T02:17:18.152Z,98708.88
2022-11-03T02:19:49.615Z,98700.84
2022-11-03T02:22:24.852Z,98701.91
2022-11-03T02:25:32.901Z,98691.59
2022-11-03T02:28:00.220Z,98682.81
2022-11-03T02:30:45.701Z,98690.19
2022-11-03T02:33:22.490Z,98683.16
2022-11-03T02:35:56.934Z,98670.38
2022-11-03T02:38:27.212Z,98668.97
2022-11-03T02:40:57.824Z,98663.00
2022-11-03T02:43:25.773Z,98653.22
2022-11-03T02:45:53.007Z,98647.81
2022-11-03T02:48:19.726Z,98640.53
2022-11-03T02:50:47.586Z,98640.91
2022-11-03T02:53:15.408Z,98645.69
2022-11-03T02:56:00.216Z,98646.38
2022-11-03T02:58:47.629Z,98644.69
2022-11-03T03:01:28.493Z,98637.97
2022-11-03T03:03:59.873Z,98629.50
2022-11-03T03:06:49.784Z,98630.00
2022-11-03T03:09:24.596Z,98617.72
2022-11-03T03:11:55.138Z,98622.31
2022-11-03T03:14:27.156Z,98615.06
2022-11-03T03:17:01.389Z,98617.25
2022-11-03T03:19:45.907Z,98610.88
2022-11-03T03:22:24.455Z,98601.22
2022-11-03T03:24:54.225Z,98607.19
2022-11-03T03:27:24.796Z,98604.44
2022-11-03T03:29:59.039Z,98596.13
2022-11-03T03:32:28.463Z,98587.53
2022-11-03T03:34:58.270Z,98582.25
2022-11-03T03:37:28.924Z,98581.97
2022-11-03T03:40:00.491Z,98583.72
2022-11-03T03:42:30.067Z,98579.00
2022-11-03T03:44:58.247Z,98573.44
2022-11-03T03:47:29.682Z,98571.16
2022-11-03T03:49:56.811Z,98575.13
2022-11-03T03:52:24.129Z,98559.78
2022-11-03T03:54:51.228Z,98551.63
2022-11-03T03:57:22.186Z,98553.31
2022-11-03T03:59:49.140Z,98554.28
2022-11-03T04:02:16.061Z,98552.91
2022-11-03T04:04:42.766Z,98556.66
2022-11-03T04:07:44.561Z,98547.72
2022-11-03T04:10:11.269Z,98554.59
2022-11-03T04:12:59.201Z,98550.31
2022-11-03T04:15:44.408Z,98542.22
2022-11-03T04:18:29.321Z,98545.84
2022-11-03T04:21:14.320Z,98549.38
2022-11-03T04:23:40.896Z,98549.84
2022-11-03T04:26:15.299Z,98545.72
2022-11-03T04:28:42.370Z,98550.16
2022-11-03T04:31:13.375Z,98551.59
2022-11-03T04:33:41.510Z,98549.19
2022-11-03T04:36:14.008Z,98547.88
2022-11-03T04:38:40.606Z,98544.69
2022-11-03T04:41:14.639Z,98546.84
2022-11-03T04:43:41.642Z,98551.69
2022-11-03T04:46:11.663Z,98549.34
2022-11-03T04:48:38.194Z,98545.59
2022-11-03T04:51:16.761Z,98529.03
2022-11-03T04:53:50.020Z,98531.75
2022-11-03T04:56:20.099Z,98529.66
2022-11-03T04:58:48.206Z,98514.25
2022-11-03T05:01:23.660Z,98520.72
2022-11-03T05:03:53.853Z,98515.66
2022-11-03T05:06:20.293Z,98517.16
2022-11-03T05:08:49.811Z,98506.69
2022-11-03T05:11:30.805Z,98501.56
2022-11-03T05:14:02.893Z,98490.09
2022-11-03T05:16:30.688Z,98474.88
2022-11-03T05:18:57.467Z,98477.00
2022-11-03T05:21:26.904Z,98476.06
2022-11-03T05:23:58.010Z,98472.25
2022-11-03T05:26:34.154Z,98468.06
2022-11-03T05:29:14.457Z,98463.25
2022-11-03T05:31:43.608Z,98460.00
2022-11-03T05:34:32.360Z,98455.06
2022-11-03T05:37:09.035Z,98445.94
2022-11-03T05:39:43.435Z,98447.38
2022-11-03T05:42:45.199Z,98445.41
2022-11-03T05:45:18.901Z,98449.50
2022-11-03T05:47:45.794Z,98443.59
2022-11-03T05:50:26.956Z,98439.38
2022-11-03T05:53:10.168Z,98433.88
2022-11-03T05:55:37.313Z,98428.63
2022-11-03T05:58:29.050Z,98426.66
2022-11-03T06:00:57.533Z,98435.81
2022-11-03T06:03:27.396Z,98425.03
2022-11-03T06:05:55.313Z,98424.88
2022-11-03T06:08:25.954Z,98424.88
2022-11-03T06:10:58.304Z,98422.72
2022-11-03T06:13:33.985Z,98420.94
2022-11-03T06:16:29.611Z,98417.16
2022-11-03T06:18:56.174Z,98411.09
2022-11-03T06:21:26.506Z,98417.97
2022-11-03T06:23:54.838Z,98409.81
2022-11-03T06:26:26.031Z,98401.78
2022-11-03T06:28:53.797Z,98396.06
2022-11-03T06:31:27.681Z,98394.72
2022-11-03T06:33:56.958Z,98388.00
2022-11-03T06:36:27.663Z,98387.19
2022-11-03T06:39:02.017Z,98388.81
2022-11-03T06:41:32.105Z,98382.94
2022-11-03T06:44:02.254Z,98383.59
2022-11-03T06:46:30.759Z,98378.69
2022-11-03T06:49:04.121Z,98379.59
2022-11-03T06:51:31.433Z,98382.66
2022-11-03T06:54:00.156Z,98386.84
2022-11-03T06:56:29.279Z,98384.53
2022-11-03T06:58:57.321Z,98384.97
2022-11-03T07:01:29.985Z,98385.53
2022-11-03T07:04:01.461Z,98379.69
2022-11-03T07:06:36.411Z,98373.91
2022-11-03T07:09:05.902Z,98375.34
2022-11-03T07:11:44.868Z,98382.16
2022-11-03T07:14:15.609Z,98369.09
2022-11-03T07:16:45.141Z,98361.00
2022-11-03T07:19:21.795Z,98358.78
2022-11-03T07:22:02.633Z,98347.69
2022-11-03T07:24:42.010Z,98341.22
2022-11-03T07:27:21.917Z,98331.38
2022-11-03T07:29:50.860Z,98314.38
2022-11-03T07:32:24.045Z,98314.69
2022-11-03T07:34:53.194Z,98321.34
2022-11-03T07:37:25.825Z,98317.16
2022-11-03T07:39:53.040Z,98319.56
2022-11-03T07:42:24.539Z,98321.44
2022-11-03T07:44:53.202Z,98304.13
2022-11-03T07:47:23.389Z,98302.06
2022-11-03T07:49:49.842Z,98298.22
2022-11-03T07:52:20.926Z,98294.31
2022-11-03T07:54:47.548Z,98294.66
2022-11-03T07:57:24.696Z,98300.53
2022-11-03T07:59:57.329Z,98291.69
2022-11-03T08:02:46.765Z,98284.00
2022-11-03T08:05:13.507Z,98282.00
2022-11-03T08:07:40.093Z,98283.81
2022-11-03T08:10:07.379Z,98281.66
2022-11-03T08:12:33.932Z,98276.34
2022-11-03T08:15:00.534Z,98283.41
2022-11-03T08:17:27.116Z,98280.34
2022-11-03T08:19:53.609Z,98279.97
2022-11-03T08:22:20.161Z,98277.75
2022-11-03T08:24:46.658Z,98275.19
2022-11-03T08:27:13.185Z,98272.84
2022-11-03T08:29:39.673Z,98271.44
2022-11-03T08:32:06.101Z,98272.44
2022-11-03T08:34:32.656Z,98275.56
2022-11-03T08:36:59.135Z,98272.53
2022-11-03T08:39:28.773Z,98271.13
2022-11-03T08:41:55.215Z,98266.50
2022-11-03T08:44:21.943Z,98265.63
2022-11-03T08:46:48.401Z,98259.16
2022-11-03T08:49:14.895Z,98260.78
2022-11-03T08:51:44.340Z,98256.50
2022-11-03T08:54:11.304Z,98260.13
2022-11-03T08:56:37.880Z,98251.34
2022-11-03T08:59:04.344Z,98249.94
2022-11-03T09:01:30.865Z,98237.69
2022-11-03T09:03:57.639Z,98237.69
2022-11-03T09:06:24.220Z,98232.75
2022-11-03T09:11:37.482Z,98216.59
2022-11-03T09:14:03.977Z,98210.19
2022-11-03T09:16:30.436Z,98208.16
2022-11-03T09:18:56.881Z,98206.38
2022-11-03T09:21:23.462Z,98199.47
2022-11-03T09:23:50.155Z,98190.53
2022-11-03T09:26:16.699Z,98174.88
2022-11-03T09:28:43.220Z,98174.91
2022-11-03T09:31:09.773Z,98166.78
2022-11-03T09:33:36.944Z,98158.63
2022-11-03T09:36:03.535Z,98137.88
2022-11-03T09:38:30.033Z,98113.16
2022-11-03T09:40:56.657Z,98131.75
2022-11-03T09:43:23.225Z,98138.50
2022-11-03T09:45:49.750Z,98139.81
2022-11-03T09:48:16.439Z,98129.03
2022-11-03T09:50:43.003Z,98124.53
2022-11-03T09:53:12.127Z,98132.44
2022-11-03T09:55:39.472Z,98122.28
2022-11-03T09:58:17.396Z,98116.97
2022-11-03T10:00:45.098Z,98122.94
2022-11-03T10:03:17.152Z,98114.16
2022-11-03T10:05:48.121Z,98124.06
2022-11-03T10:08:27.312Z,98114.66
2022-11-03T10:10:55.028Z,98111.06
2022-11-03T10:13:30.218Z,98109.72
2022-11-03T10:15:59.873Z,98100.22
2022-11-03T10:18:27.969Z,98091.53
2022-11-03T10:20:55.163Z,98087.16
2022-11-03T10:23:21.790Z,98084.44
2022-11-03T10:25:48.216Z,98075.81
2022-11-03T10:28:21.069Z,98075.72
2022-11-03T10:31:17.288Z,98059.44
2022-11-03T10:33:56.093Z,98046.69
2022-11-03T10:36:25.864Z,98039.16
2022-11-03T10:38:53.002Z,98037.44
2022-11-03T10:41:30.764Z,98038.09
2022-11-03T10:44:08.155Z,98014.97
2022-11-03T10:46:51.595Z,98021.84
2022-11-03T10:49:19.624Z,98005.63
2022-11-03T10:51:52.298Z,98003.00
2022-11-03T10:54:23.495Z,97989.66
2022-11-03T10:56:51.752Z,97985.78
2022-11-03T10:59:21.410Z,97991.69
2022-11-03T11:01:48.128Z,97990.44
2022-11-03T11:04:19.246Z,97985.69
2022-11-03T11:06:46.503Z,97994.16
2022-11-03T11:09:17.283Z,97995.72
2022-11-03T11:12:21.983Z,98013.00
2022-11-03T11:14:59.599Z,98002.88
2022-11-03T11:17:41.470Z,97990.38
2022-11-03T11:20:22.141Z,97981.34
2022-11-03T11:22:50.197Z,97977.34
2022-11-03T11:25:20.492Z,97966.28
2022-11-03T11:27:53.060Z,97963.03
2022-11-03T11:30:29.408Z,97962.06
2022-11-03T11:32:59.998Z,97969.63
2022-11-03T11:35:26.454Z,97956.19
2022-11-03T11:37:54.437Z,97964.59
2022-11-03T11:40:23.615Z,97954.72
2022-11-03T11:43:22.293Z,97947.03
2022-11-03T11:46:23.064Z,97930.34
2022-11-03T11:49:02.124Z,97916.56
2022-11-03T11:51:34.059Z,97909.63
2022-11-03T11:54:17.459Z,97901.19
2022-11-03T11:56:47.234Z,97896.66
2022-11-03T11:59:25.140Z,97892.09
2022-11-03T12:01:55.928Z,97888.59
2022-11-03T12:04:25.957Z,97880.88
2022-11-03T12:06:52.794Z,97875.16
2022-11-03T12:09:21.257Z,97875.19
2022-11-03T12:11:56.501Z,97874.69
2022-11-03T12:14:29.331Z,97868.38
2022-11-03T12:16:57.118Z,97872.81
2022-11-03T12:19:47.219Z,97871.53
2022-11-03T12:22:29.022Z,97856.84
2022-11-03T12:24:56.359Z,97858.00
2022-11-03T12:27:25.834Z,97840.50
2022-11-03T12:29:52.963Z,97830.91
2022-11-03T12:32:32.971Z,97832.50
2022-11-03T12:35:01.266Z,97818.25
2022-11-03T12:37:27.803Z,97814.66
2022-11-03T12:39:54.241Z,97803.44
2022-11-03T12:42:21.083Z,97796.66
2022-11-03T12:44:47.811Z,97791.97
2022-11-03T12:47:14.381Z,97794.41
2022-11-03T12:49:40.850Z,97792.50
2022-11-03T12:52:08.714Z,97789.75
2022-11-03T12:54:35.526Z,97781.31
2022-11-03T12:57:02.283Z,97775.66
2022-11-03T12:59:28.884Z,97758.25
2022-11-03T13:01:55.429Z,97751.31
2022-11-03T13:04:22.014Z,97752.34
2022-11-03T13:06:48.503Z,97741.59
2022-11-03T13:09:14.938Z,97733.63
2022-11-03T13:12:00.101Z,97719.69
2022-11-03T13:14:26.765Z,97701.97
2022-11-03T13:16:53.387Z,97700.09
2022-11-03T13:19:20.400Z,97702.63
2022-11-03T13:21:46.888Z,97697.69
2022-11-03T13:24:13.522Z,97686.53
2022-11-03T13:26:39.957Z,97691.34
2022-11-03T13:29:06.646Z,97685.47
2022-11-03T13:31:33.212Z,97678.03
2022-11-03T13:33:59.655Z,97672.34
2022-11-03T13:36:26.606Z,97663.19
2022-11-03T13:38:53.150Z,97653.38
2022-11-03T13:41:19.655Z,97647.09
2022-11-03T13:43:46.149Z,97648.31
2022-11-03T13:46:12.932Z,97642.59
2022-11-03T13:51:26.337Z,97629.56
2022-11-03T13:59:26.518Z,97612.38
2022-11-03T14:07:11.826Z,97612.22
2022-11-03T14:09:38.660Z,97611.75
2022-11-03T14:12:24.161Z,97613.94
2022-11-03T14:14:50.616Z,97612.22
2022-11-03T14:17:17.063Z,97606.16
2022-11-03T14:19:47.479Z,97608.84
2022-11-03T14:22:17.365Z,97623.03
2022-11-03T14:24:44.439Z,97614.00
2022-11-03T14:27:10.891Z,97613.78
2022-11-03T14:29:37.440Z,97604.69
2022-11-03T14:32:04.078Z,97624.00
2022-11-03T14:34:30.816Z,97608.13
2022-11-03T14:36:57.403Z,97607.75
2022-11-03T14:39:24.056Z,97612.28
2022-11-03T14:42:05.786Z,97611.50
2022-11-03T14:44:39.381Z,97612.34
2022-11-03T14:47:07.667Z,97600.41
2022-11-03T14:49:35.310Z,97610.88
2022-11-03T14:52:03.399Z,97614.53
2022-11-03T14:54:31.125Z,97603.66
2022-11-03T14:56:57.796Z,97608.50
2022-11-03T14:59:24.836Z,97606.13
2022-11-03T15:01:52.267Z,97608.56
2022-11-03T15:04:19.256Z,97604.91
2022-11-03T15:06:46.277Z,97605.91
2022-11-03T15:09:14.747Z,97589.34
2022-11-03T15:11:43.062Z,97579.44
2022-11-03T15:14:10.251Z,97580.38
2022-11-03T15:16:36.880Z,97569.31
2022-11-03T15:19:04.721Z,97571.75
2022-11-03T15:21:31.944Z,97561.03
2022-11-03T15:26:45.146Z,97553.59
2022-11-03T15:29:11.714Z,97557.06
2022-11-03T15:31:39.236Z,97556.25
2022-11-03T15:34:08.742Z,97548.84
2022-11-03T15:36:35.682Z,97536.97
2022-11-03T15:39:02.293Z,97534.66
2022-11-03T15:41:28.897Z,97530.16
2022-11-03T15:43:55.386Z,97525.13
2022-11-03T15:46:21.911Z,97524.75
2022-11-03T15:48:49.210Z,97518.41
2022-11-03T15:51:15.911Z,97520.25
2022-11-03T15:53:43.754Z,97516.81
2022-11-03T15:56:10.410Z,97507.72
2022-11-03T15:58:37.557Z,97505.84
2022-11-03T16:01:05.067Z,97511.00
2022-11-03T16:03:34.584Z,97511.53
2022-11-03T16:06:01.113Z,97514.63
2022-11-03T16:08:27.703Z,97509.13
2022-11-03T16:10:57.868Z,97502.44
2022-11-03T16:13:25.347Z,97492.00
2022-11-03T16:15:54.332Z,97494.22
2022-11-03T16:18:21.231Z,97504.88
2022-11-03T16:20:47.694Z,97496.63
2022-11-03T16:23:14.305Z,97489.31
2022-11-03T16:25:41.223Z,97482.31
2022-11-03T16:28:07.979Z,97480.88
2022-11-03T16:30:35.433Z,97461.66
2022-11-03T16:33:01.959Z,97462.25
2022-11-03T16:36:31.033Z,97447.22
2022-11-03T16:38:57.648Z,97432.41
2022-11-03T16:41:24.120Z,97414.47
2022-11-03T16:43:50.619Z,97412.09
2022-11-03T16:46:17.022Z,97402.81
2022-11-03T16:48:43.496Z,97398.84
2022-11-03T16:51:10.342Z,97405.94
2022-11-03T16:53:36.793Z,97402.13
2022-11-03T16:56:04.829Z,97384.69
2022-11-03T16:58:31.292Z,97376.78
2022-11-03T17:00:57.804Z,97361.41
2022-11-03T17:03:24.290Z,97360.25
2022-11-03T17:05:50.910Z,97353.13
2022-11-03T17:08:46.761Z,97347.94
2022-11-03T17:11:03.832Z,97350.38
2022-11-03T17:13:30.203Z,97343.66
2022-11-03T17:15:56.579Z,97342.66
2022-11-03T17:18:22.954Z,97322.84
2022-11-03T17:20:49.403Z,97316.78
2022-11-03T17:23:15.804Z,97315.75
2022-11-03T17:25:42.483Z,97315.97
2022-11-03T17:28:10.445Z,97316.25
2022-11-03T17:30:39.297Z,97313.69
2022-11-03T17:33:09.017Z,97323.41
2022-11-03T17:35:39.905Z,97311.22
2022-11-03T17:38:13.514Z,97305.94
2022-11-03T17:40:42.017Z,97304.28
2022-11-03T17:43:27.562Z,97295.53
2022-11-03T17:45:54.167Z,97305.44
2022-11-03T17:48:22.571Z,97301.56
2022-11-03T17:50:50.716Z,97312.88
2022-11-03T17:53:24.618Z,97311.81
2022-11-03T17:56:16.127Z,97308.09
2022-11-03T17:58:45.940Z,97326.38
2022-11-03T18:01:20.637Z,97330.63
2022-11-03T18:03:47.252Z,97331.22
2022-11-03T18:06:19.195Z,97337.41
2022-11-03T18:08:47.446Z,97343.31
2022-11-03T18:11:36.476Z,97350.31
2022-11-03T18:14:03.363Z,97363.41
2022-11-03T18:16:31.331Z,97353.66
2022-11-03T18:18:58.639Z,97361.56
2022-11-03T18:21:25.161Z,97344.88
2022-11-03T18:23:51.763Z,97334.50
2022-11-03T18:26:21.607Z,97343.88
2022-11-03T18:28:50.236Z,97334.50
2022-11-03T18:31:32.522Z,97330.56
2022-11-03T18:34:03.162Z,97326.75
2022-11-03T18:36:32.305Z,97332.84
2022-11-03T18:38:59.292Z,97319.84
2022-11-03T18:41:40.904Z,97322.41
2022-11-03T18:44:15.762Z,97313.38
2022-11-03T18:46:42.633Z,97307.25
2022-11-03T18:49:09.528Z,97313.84
2022-11-03T18:51:36.166Z,97293.25
2022-11-03T18:54:03.138Z,97288.25
2022-11-03T18:56:32.873Z,97282.84
2022-11-03T18:59:02.267Z,97283.25
2022-11-03T19:01:29.187Z,97275.38
2022-11-03T19:03:56.522Z,97276.88
2022-11-03T19:06:24.404Z,97280.09
2022-11-03T19:08:58.130Z,97265.69
2022-11-03T19:11:24.690Z,97253.78
2022-11-03T19:13:51.302Z,97247.38
2022-11-03T19:16:21.503Z,97248.03
2022-11-03T19:18:48.293Z,97237.00
2022-11-03T19:21:20.632Z,97221.59
2022-11-03T19:23:48.683Z,97216.59
2022-11-03T19:26:23.386Z,97207.88
2022-11-03T19:28:56.109Z,97203.63
2022-11-03T19:31:33.917Z,97182.53
2022-11-03T19:34:01.056Z,97169.44
2022-11-03T19:36:28.314Z,97166.44
2022-11-03T19:38:55.097Z,97165.75
2022-11-03T19:41:39.985Z,97170.13
2022-11-03T19:44:11.370Z,97166.22
2022-11-03T19:46:39.489Z,97164.50
2022-11-03T19:49:06.636Z,97153.50
2022-11-03T19:51:36.815Z,97152.91
2022-11-03T19:54:06.532Z,97144.78
2022-11-03T19:56:33.148Z,97152.44
2022-11-03T19:59:02.744Z,97150.72
2022-11-03T20:01:29.469Z,97141.44
2022-11-03T20:03:56.021Z,97149.81
2022-11-03T20:06:22.530Z,97162.66
2022-11-03T20:08:49.088Z,97167.50
2022-11-03T20:11:15.571Z,97178.16
2022-11-03T20:13:43.240Z,97175.41
2022-11-03T20:16:14.918Z,97173.44
2022-11-03T20:18:41.883Z,97185.00
2022-11-03T20:21:14.883Z,97190.63
2022-11-03T20:23:41.707Z,97198.22
2022-11-03T20:26:17.512Z,97193.97
2022-11-03T20:28:44.560Z,97206.03
2022-11-03T20:31:12.776Z,97201.19
2022-11-03T20:33:39.759Z,97198.34
2022-11-03T20:36:06.886Z,97191.25
2022-11-03T20:38:33.549Z,97186.28
2022-11-03T20:41:06.336Z,97176.28
2022-11-03T20:43:39.249Z,97176.97
2022-11-03T20:46:24.646Z,97155.16
2022-11-03T20:48:51.708Z,97146.81
2022-11-03T20:51:21.194Z,97145.44
2022-11-03T20:53:48.123Z,97165.91
2022-11-03T20:56:24.113Z,97174.50
2022-11-03T20:58:50.827Z,97177.41
2022-11-03T21:01:35.594Z,97187.63
2022-11-03T21:04:03.544Z,97177.75
2022-11-03T21:06:32.031Z,97187.16
2022-11-03T21:08:59.113Z,97202.66
2022-11-03T21:11:28.444Z,97207.00
2022-11-03T21:14:07.806Z,97207.00
2022-11-03T21:16:52.659Z,97222.59
2022-11-03T21:19:40.384Z,97240.25
2022-11-03T21:22:51.865Z,97251.13
2022-11-03T21:25:18.823Z,97277.06
2022-11-03T21:27:46.046Z,97286.16
2022-11-03T21:30:14.129Z,97278.28
2022-11-03T21:32:40.944Z,97272.97
2022-11-03T21:35:08.163Z,97279.69
2022-11-03T21:37:34.799Z,97278.16
2022-11-03T21:40:01.411Z,97292.03
2022-11-03T21:42:46.438Z,97296.69
2022-11-03T21:45:13.392Z,97303.16
2022-11-03T21:48:00.230Z,97324.69
2022-11-03T21:50:26.724Z,97321.69
2022-11-03T21:52:53.138Z,97315.75
2022-11-03T21:55:19.591Z,97308.84
2022-11-03T21:57:46.044Z,97295.78
2022-11-03T22:00:13.161Z,97298.16
2022-11-03T22:02:39.612Z,97314.22
2022-11-03T22:05:10.654Z,97319.94
2022-11-03T22:07:37.555Z,97314.72
2022-11-03T22:10:04.451Z,97319.66
2022-11-03T22:12:30.936Z,97329.47
2022-11-03T22:15:16.034Z,97325.00
2022-11-03T22:17:44.602Z,97325.28
2022-11-03T22:20:29.644Z,97348.59
2022-11-03T22:23:18.705Z,97377.84
2022-11-03T22:26:05.107Z,97370.34
2022-11-03T22:28:31.560Z,97348.47
2022-11-03T22:31:16.787Z,97334.31
2022-11-03T22:34:01.603Z,97344.66
2022-11-03T22:36:28.485Z,97343.03
2022-11-03T22:39:13.505Z,97334.16
2022-11-03T22:42:03.401Z,97342.38
2022-11-03T22:44:51.131Z,97336.50
2022-11-03T22:47:18.911Z,97346.97
2022-11-03T22:49:45.664Z,97357.16
2022-11-03T22:52:12.245Z,97367.50
2022-11-03T22:54:38.753Z,97380.09
2022-11-03T22:57:05.330Z,97392.25
2022-11-03T22:59:31.807Z,97400.22
2022-11-03T23:01:58.350Z,97403.91
2022-11-03T23:04:24.936Z,97402.88
2022-11-03T23:06:51.415Z,97406.97
2022-11-03T23:09:18.014Z,97397.81
2022-11-03T23:11:44.487Z,97400.75
2022-11-03T23:14:11.702Z,97399.63
2022-11-03T23:16:40.355Z,97397.16
2022-11-03T23:19:26.455Z,97398.63
2022-11-03T23:21:53.888Z,97405.66
2022-11-03T23:24:42.314Z,97395.91
2022-11-03T23:27:11.887Z,97398.38
2022-11-03T23:29:38.389Z,97405.72
2022-11-03T23:32:05.278Z,97409.63
2022-11-03T23:34:31.860Z,97407.00
2022-11-03T23:36:58.766Z,97418.19
2022-11-03T23:39:25.214Z,97427.50
2022-11-03T23:41:51.680Z,97435.63
2022-11-03T23:44:18.296Z,97429.41
2022-11-03T23:47:03.148Z,97436.13
2022-11-03T23:49:29.925Z,97435.88
2022-11-03T23:51:56.767Z,97438.09
2022-11-03T23:54:23.223Z,97432.63
2022-11-03T23:57:08.501Z,97445.06
2022-11-03T23:59:35.225Z,97440.16
